sensor_id;sensor_type;location;lat;lon;timestamp;temperature;humidity
11474;DHT22;5793;52.238;13.438;2023-07-30T00:00:53;16.30;99.90
11474;DHT22;5793;52.238;13.438;2023-07-30T00:03:20;16.30;99.90
11474;DHT22;5793;52.238;13.438;2023-07-30T00:05:54;16.20;99.90
11474;DHT22;5793;52.238;13.438;2023-07-30T00:08:22;16.10;99.90
11474;DHT22;5793;52.238;13.438;2023-07-30T00:10:50;16.00;99.90
11474;DHT22;5793;52.238;13.438;2023-07-30T00:13:17;16.00;99.90
11474;DHT22;5793;52.238;13.438;2023-07-30T00:15:46;15.90;99.90
11474;DHT22;5793;52.238;13.438;2023-07-30T00:18:14;15.80;99.90
11474;DHT22;5793;52.238;13.438;2023-07-30T00:20:43;15.80;99.90
11474;DHT22;5793;52.238;13.438;2023-07-30T00:23:12;15.70;99.90
11474;DHT22;5793;52.238;13.438;2023-07-30T00:25:40;15.70;99.90
11474;DHT22;5793;52.238;13.438;2023-07-30T00:28:08;15.50;99.90
11474;DHT22;5793;52.238;13.438;2023-07-30T00:30:35;15.50;99.90
11474;DHT22;5793;52.238;13.438;2023-07-30T00:33:03;15.50;99.90
11474;DHT22;5793;52.238;13.438;2023-07-30T00:35:31;15.40;99.90
11474;DHT22;5793;52.238;13.438;2023-07-30T00:37:59;15.40;99.90
11474;DHT22;5793;52.238;13.438;2023-07-30T00:40:28;15.40;99.90
11474;DHT22;5793;52.238;13.438;2023-07-30T00:42:55;15.40;99.90
11474;DHT22;5793;52.238;13.438;2023-07-30T00:45:23;15.40;99.90
11474;DHT22;5793;52.238;13.438;2023-07-30T00:47:51;15.30;99.90
11474;DHT22;5793;52.238;13.438;2023-07-30T00:50:19;15.30;99.90
11474;DHT22;5793;52.238;13.438;2023-07-30T00:52:47;15.30;99.90
11474;DHT22;5793;52.238;13.438;2023-07-30T00:55:15;15.30;99.90
11474;DHT22;5793;52.238;13.438;2023-07-30T00:57:45;15.30;99.90
11474;DHT22;5793;52.238;13.438;2023-07-30T01:00:13;15.40;99.90
11474;DHT22;5793;52.238;13.438;2023-07-30T01:02:41;15.30;99.90
11474;DHT22;5793;52.238;13.438;2023-07-30T01:05:09;15.30;99.90
11474;DHT22;5793;52.238;13.438;2023-07-30T01:07:37;15.40;99.90
11474;DHT22;5793;52.238;13.438;2023-07-30T01:10:05;15.60;99.90
11474;DHT22;5793;52.238;13.438;2023-07-30T01:12:34;15.60;99.90
11474;DHT22;5793;52.238;13.438;2023-07-30T01:15:06;15.70;99.90
11474;DHT22;5793;52.238;13.438;2023-07-30T01:17:34;15.60;99.90
11474;DHT22;5793;52.238;13.438;2023-07-30T01:20:03;15.50;99.90
11474;DHT22;5793;52.238;13.438;2023-07-30T01:22:33;15.60;99.90
11474;DHT22;5793;52.238;13.438;2023-07-30T01:25:00;15.50;99.90
11474;DHT22;5793;52.238;13.438;2023-07-30T01:27:29;15.50;99.90
11474;DHT22;5793;52.238;13.438;2023-07-30T01:30:02;15.40;99.90
11474;DHT22;5793;52.238;13.438;2023-07-30T01:32:31;15.40;99.90
11474;DHT22;5793;52.238;13.438;2023-07-30T01:35:01;15.50;99.90
11474;DHT22;5793;52.238;13.438;2023-07-30T01:37:29;15.40;99.90
11474;DHT22;5793;52.238;13.438;2023-07-30T01:39:59;15.30;99.90
11474;DHT22;5793;52.238;13.438;2023-07-30T01:42:28;15.10;99.90
11474;DHT22;5793;52.238;13.438;2023-07-30T01:44:56;15.10;99.90
11474;DHT22;5793;52.238;13.438;2023-07-30T01:47:24;15.10;99.90
11474;DHT22;5793;52.238;13.438;2023-07-30T01:49:52;15.00;99.90
11474;DHT22;5793;52.238;13.438;2023-07-30T01:52:19;15.10;99.90
11474;DHT22;5793;52.238;13.438;2023-07-30T01:54:47;14.90;99.90
11474;DHT22;5793;52.238;13.438;2023-07-30T01:57:16;14.80;99.90
11474;DHT22;5793;52.238;13.438;2023-07-30T01:59:44;14.90;99.90
11474;DHT22;5793;52.238;13.438;2023-07-30T02:02:12;14.80;99.90
11474;DHT22;5793;52.238;13.438;2023-07-30T02:04:45;14.80;99.90
11474;DHT22;5793;52.238;13.438;2023-07-30T02:07:15;14.90;99.90
11474;DHT22;5793;52.238;13.438;2023-07-30T02:09:43;14.90;99.90
11474;DHT22;5793;52.238;13.438;2023-07-30T02:12:11;14.90;99.90
11474;DHT22;5793;52.238;13.438;2023-07-30T02:14:40;15.00;99.90
11474;DHT22;5793;52.238;13.438;2023-07-30T02:17:07;15.10;99.90
11474;DHT22;5793;52.238;13.438;2023-07-30T02:19:35;15.10;99.90
11474;DHT22;5793;52.238;13.438;2023-07-30T02:22:03;15.10;99.90
11474;DHT22;5793;52.238;13.438;2023-07-30T02:24:31;15.00;99.90
11474;DHT22;5793;52.238;13.438;2023-07-30T02:26:59;15.00;99.90
11474;DHT22;5793;52.238;13.438;2023-07-30T02:29:27;14.80;99.90
11474;DHT22;5793;52.238;13.438;2023-07-30T02:31:57;14.70;99.90
11474;DHT22;5793;52.238;13.438;2023-07-30T02:34:26;14.70;99.90
11474;DHT22;5793;52.238;13.438;2023-07-30T02:36:54;14.70;99.90
11474;DHT22;5793;52.238;13.438;2023-07-30T02:39:21;14.60;99.90
11474;DHT22;5793;52.238;13.438;2023-07-30T02:41:49;14.70;99.90
11474;DHT22;5793;52.238;13.438;2023-07-30T02:44:17;14.70;99.90
11474;DHT22;5793;52.238;13.438;2023-07-30T02:46:45;14.80;99.90
11474;DHT22;5793;52.238;13.438;2023-07-30T02:49:14;14.70;99.90
11474;DHT22;5793;52.238;13.438;2023-07-30T02:51:42;14.70;99.90
11474;DHT22;5793;52.238;13.438;2023-07-30T02:54:15;14.60;99.90
11474;DHT22;5793;52.238;13.438;2023-07-30T02:56:43;14.50;99.90
11474;DHT22;5793;52.238;13.438;2023-07-30T02:59:12;14.40;99.90
11474;DHT22;5793;52.238;13.438;2023-07-30T03:01:39;14.40;99.90
11474;DHT22;5793;52.238;13.438;2023-07-30T03:04:08;14.40;99.90
11474;DHT22;5793;52.238;13.438;2023-07-30T03:06:37;14.40;99.90
11474;DHT22;5793;52.238;13.438;2023-07-30T03:09:04;14.50;99.90
11474;DHT22;5793;52.238;13.438;2023-07-30T03:11:32;14.60;99.90
11474;DHT22;5793;52.238;13.438;2023-07-30T03:14:00;14.60;99.90
11474;DHT22;5793;52.238;13.438;2023-07-30T03:16:28;14.70;99.90
11474;DHT22;5793;52.238;13.438;2023-07-30T03:18:55;14.70;99.90
11474;DHT22;5793;52.238;13.438;2023-07-30T03:21:23;14.60;99.90
11474;DHT22;5793;52.238;13.438;2023-07-30T03:23:52;14.60;99.90
11474;DHT22;5793;52.238;13.438;2023-07-30T03:26:20;14.80;99.90
11474;DHT22;5793;52.238;13.438;2023-07-30T03:28:48;14.80;99.90
11474;DHT22;5793;52.238;13.438;2023-07-30T03:31:15;14.90;99.90
11474;DHT22;5793;52.238;13.438;2023-07-30T03:33:43;14.80;99.90
11474;DHT22;5793;52.238;13.438;2023-07-30T03:36:12;14.80;99.90
11474;DHT22;5793;52.238;13.438;2023-07-30T03:38:41;14.80;99.90
11474;DHT22;5793;52.238;13.438;2023-07-30T03:41:11;14.90;99.90
11474;DHT22;5793;52.238;13.438;2023-07-30T03:43:38;14.90;99.90
11474;DHT22;5793;52.238;13.438;2023-07-30T03:46:06;15.00;99.90
11474;DHT22;5793;52.238;13.438;2023-07-30T03:48:34;15.00;99.90
11474;DHT22;5793;52.238;13.438;2023-07-30T03:51:02;15.10;99.90
11474;DHT22;5793;52.238;13.438;2023-07-30T03:53:30;15.10;99.90
11474;DHT22;5793;52.238;13.438;2023-07-30T03:55:57;15.20;99.90
11474;DHT22;5793;52.238;13.438;2023-07-30T03:58:26;15.30;99.90
11474;DHT22;5793;52.238;13.438;2023-07-30T04:00:54;15.30;99.90
11474;DHT22;5793;52.238;13.438;2023-07-30T04:03:22;15.20;99.90
11474;DHT22;5793;52.238;13.438;2023-07-30T04:05:50;15.40;99.90
11474;DHT22;5793;52.238;13.438;2023-07-30T04:08:18;15.30;99.90
11474;DHT22;5793;52.238;13.438;2023-07-30T04:10:45;15.30;99.90
11474;DHT22;5793;52.238;13.438;2023-07-30T04:13:13;15.30;99.90
11474;DHT22;5793;52.238;13.438;2023-07-30T04:15:42;15.30;99.90
11474;DHT22;5793;52.238;13.438;2023-07-30T04:18:10;15.30;99.90
11474;DHT22;5793;52.238;13.438;2023-07-30T04:20:38;15.40;99.90
11474;DHT22;5793;52.238;13.438;2023-07-30T04:23:06;15.50;99.90
11474;DHT22;5793;52.238;13.438;2023-07-30T04:25:33;15.60;99.90
11474;DHT22;5793;52.238;13.438;2023-07-30T04:28:01;15.70;99.90
11474;DHT22;5793;52.238;13.438;2023-07-30T04:30:29;15.50;99.90
11474;DHT22;5793;52.238;13.438;2023-07-30T04:32:58;15.60;99.90
11474;DHT22;5793;52.238;13.438;2023-07-30T04:35:26;15.80;99.90
11474;DHT22;5793;52.238;13.438;2023-07-30T04:37:53;15.80;99.90
11474;DHT22;5793;52.238;13.438;2023-07-30T04:40:21;15.70;99.90
11474;DHT22;5793;52.238;13.438;2023-07-30T04:42:50;15.80;99.90
11474;DHT22;5793;52.238;13.438;2023-07-30T04:45:17;15.90;99.90
11474;DHT22;5793;52.238;13.438;2023-07-30T04:47:45;15.90;99.90
11474;DHT22;5793;52.238;13.438;2023-07-30T04:50:14;15.80;99.90
11474;DHT22;5793;52.238;13.438;2023-07-30T04:52:42;15.80;99.90
11474;DHT22;5793;52.238;13.438;2023-07-30T04:55:10;15.80;99.90
11474;DHT22;5793;52.238;13.438;2023-07-30T04:57:38;15.80;99.90
11474;DHT22;5793;52.238;13.438;2023-07-30T05:00:06;15.90;99.90
11474;DHT22;5793;52.238;13.438;2023-07-30T05:02:34;15.90;99.90
11474;DHT22;5793;52.238;13.438;2023-07-30T05:05:02;15.80;99.90
11474;DHT22;5793;52.238;13.438;2023-07-30T05:07:31;16.00;99.90
11474;DHT22;5793;52.238;13.438;2023-07-30T05:09:59;16.10;99.90
11474;DHT22;5793;52.238;13.438;2023-07-30T05:12:27;16.10;99.90
11474;DHT22;5793;52.238;13.438;2023-07-30T05:14:55;16.10;99.90
11474;DHT22;5793;52.238;13.438;2023-07-30T05:17:23;16.20;99.90
11474;DHT22;5793;52.238;13.438;2023-07-30T05:19:50;16.20;99.90
11474;DHT22;5793;52.238;13.438;2023-07-30T05:22:18;16.30;99.90
11474;DHT22;5793;52.238;13.438;2023-07-30T05:24:47;16.50;99.90
11474;DHT22;5793;52.238;13.438;2023-07-30T05:27:15;16.70;99.90
11474;DHT22;5793;52.238;13.438;2023-07-30T05:29:43;16.80;99.90
11474;DHT22;5793;52.238;13.438;2023-07-30T05:32:14;16.80;99.90
11474;DHT22;5793;52.238;13.438;2023-07-30T05:34:42;16.90;99.90
11474;DHT22;5793;52.238;13.438;2023-07-30T05:37:10;17.00;99.90
11474;DHT22;5793;52.238;13.438;2023-07-30T05:39:37;17.00;99.90
11474;DHT22;5793;52.238;13.438;2023-07-30T05:42:07;17.10;99.90
11474;DHT22;5793;52.238;13.438;2023-07-30T05:44:34;17.10;99.90
11474;DHT22;5793;52.238;13.438;2023-07-30T05:47:02;17.20;99.90
11474;DHT22;5793;52.238;13.438;2023-07-30T05:49:30;17.30;99.90
11474;DHT22;5793;52.238;13.438;2023-07-30T05:51:58;17.40;99.90
11474;DHT22;5793;52.238;13.438;2023-07-30T05:54:26;17.50;99.90
11474;DHT22;5793;52.238;13.438;2023-07-30T05:56:54;17.50;99.90
11474;DHT22;5793;52.238;13.438;2023-07-30T05:59:23;17.50;99.90
11474;DHT22;5793;52.238;13.438;2023-07-30T06:01:50;17.60;99.90
11474;DHT22;5793;52.238;13.438;2023-07-30T06:04:19;17.60;99.90
11474;DHT22;5793;52.238;13.438;2023-07-30T06:06:46;17.60;99.90
11474;DHT22;5793;52.238;13.438;2023-07-30T06:09:14;17.60;99.90
11474;DHT22;5793;52.238;13.438;2023-07-30T06:11:42;17.60;99.90
11474;DHT22;5793;52.238;13.438;2023-07-30T06:14:10;17.70;99.90
11474;DHT22;5793;52.238;13.438;2023-07-30T06:16:39;17.70;99.90
11474;DHT22;5793;52.238;13.438;2023-07-30T06:19:07;17.70;99.90
11474;DHT22;5793;52.238;13.438;2023-07-30T06:21:34;17.70;99.90
11474;DHT22;5793;52.238;13.438;2023-07-30T06:24:03;17.70;99.90
11474;DHT22;5793;52.238;13.438;2023-07-30T06:26:31;17.90;99.90
11474;DHT22;5793;52.238;13.438;2023-07-30T06:28:58;18.10;99.90
11474;DHT22;5793;52.238;13.438;2023-07-30T06:31:26;18.40;99.90
11474;DHT22;5793;52.238;13.438;2023-07-30T06:33:55;18.50;99.90
11474;DHT22;5793;52.238;13.438;2023-07-30T06:36:23;18.60;99.90
11474;DHT22;5793;52.238;13.438;2023-07-30T06:38:51;18.70;99.90
11474;DHT22;5793;52.238;13.438;2023-07-30T06:41:19;18.70;99.90
11474;DHT22;5793;52.238;13.438;2023-07-30T06:43:47;18.60;99.90
11474;DHT22;5793;52.238;13.438;2023-07-30T06:46:15;18.50;99.90
11474;DHT22;5793;52.238;13.438;2023-07-30T06:48:43;18.50;99.90
11474;DHT22;5793;52.238;13.438;2023-07-30T06:51:12;18.60;99.90
11474;DHT22;5793;52.238;13.438;2023-07-30T06:53:40;18.70;99.90
11474;DHT22;5793;52.238;13.438;2023-07-30T06:56:08;18.80;99.90
11474;DHT22;5793;52.238;13.438;2023-07-30T06:58:36;19.00;99.90
11474;DHT22;5793;52.238;13.438;2023-07-30T07:01:06;19.20;99.90
11474;DHT22;5793;52.238;13.438;2023-07-30T07:03:34;19.60;99.90
11474;DHT22;5793;52.238;13.438;2023-07-30T07:06:02;19.90;99.90
11474;DHT22;5793;52.238;13.438;2023-07-30T07:08:31;20.10;99.90
11474;DHT22;5793;52.238;13.438;2023-07-30T07:10:59;20.20;99.90
11474;DHT22;5793;52.238;13.438;2023-07-30T07:13:27;20.20;99.90
11474;DHT22;5793;52.238;13.438;2023-07-30T07:15:55;20.20;99.90
11474;DHT22;5793;52.238;13.438;2023-07-30T07:18:22;20.10;99.90
11474;DHT22;5793;52.238;13.438;2023-07-30T07:20:50;20.00;99.90
11474;DHT22;5793;52.238;13.438;2023-07-30T07:23:18;19.90;99.90
11474;DHT22;5793;52.238;13.438;2023-07-30T07:25:47;19.90;99.90
11474;DHT22;5793;52.238;13.438;2023-07-30T07:28:15;20.00;99.90
11474;DHT22;5793;52.238;13.438;2023-07-30T07:30:44;20.20;99.90
11474;DHT22;5793;52.238;13.438;2023-07-30T07:33:12;20.50;99.90
11474;DHT22;5793;52.238;13.438;2023-07-30T07:35:40;20.80;99.90
11474;DHT22;5793;52.238;13.438;2023-07-30T07:38:07;21.00;99.90
11474;DHT22;5793;52.238;13.438;2023-07-30T07:40:39;21.10;99.90
11474;DHT22;5793;52.238;13.438;2023-07-30T07:43:08;21.10;99.90
11474;DHT22;5793;52.238;13.438;2023-07-30T07:45:36;21.30;99.90
11474;DHT22;5793;52.238;13.438;2023-07-30T07:48:04;21.40;99.90
11474;DHT22;5793;52.238;13.438;2023-07-30T07:50:32;21.50;99.90
11474;DHT22;5793;52.238;13.438;2023-07-30T07:53:00;21.30;99.90
11474;DHT22;5793;52.238;13.438;2023-07-30T07:55:28;21.10;99.90
11474;DHT22;5793;52.238;13.438;2023-07-30T07:57:55;21.20;99.90
11474;DHT22;5793;52.238;13.438;2023-07-30T08:00:24;21.30;99.90
11474;DHT22;5793;52.238;13.438;2023-07-30T08:02:52;21.60;99.90
11474;DHT22;5793;52.238;13.438;2023-07-30T08:05:20;21.60;99.90
11474;DHT22;5793;52.238;13.438;2023-07-30T08:07:48;21.60;99.90
11474;DHT22;5793;52.238;13.438;2023-07-30T08:10:16;21.60;99.90
11474;DHT22;5793;52.238;13.438;2023-07-30T08:12:45;21.50;99.90
11474;DHT22;5793;52.238;13.438;2023-07-30T08:15:15;21.50;99.90
11474;DHT22;5793;52.238;13.438;2023-07-30T08:17:44;21.70;99.90
11474;DHT22;5793;52.238;13.438;2023-07-30T08:20:12;21.80;99.90
11474;DHT22;5793;52.238;13.438;2023-07-30T08:22:40;21.90;99.90
11474;DHT22;5793;52.238;13.438;2023-07-30T08:25:07;22.00;99.90
11474;DHT22;5793;52.238;13.438;2023-07-30T08:27:35;22.20;99.90
11474;DHT22;5793;52.238;13.438;2023-07-30T08:30:04;22.30;99.90
11474;DHT22;5793;52.238;13.438;2023-07-30T08:32:33;22.40;99.90
11474;DHT22;5793;52.238;13.438;2023-07-30T08:35:06;22.60;99.90
11474;DHT22;5793;52.238;13.438;2023-07-30T08:37:34;23.70;99.90
11474;DHT22;5793;52.238;13.438;2023-07-30T08:40:03;24.80;99.90
11474;DHT22;5793;52.238;13.438;2023-07-30T08:42:31;25.50;99.90
11474;DHT22;5793;52.238;13.438;2023-07-30T08:44:59;25.90;99.90
11474;DHT22;5793;52.238;13.438;2023-07-30T08:47:27;27.50;99.90
11474;DHT22;5793;52.238;13.438;2023-07-30T08:49:56;27.90;99.90
11474;DHT22;5793;52.238;13.438;2023-07-30T08:52:26;27.80;99.90
11474;DHT22;5793;52.238;13.438;2023-07-30T08:54:55;27.50;99.90
11474;DHT22;5793;52.238;13.438;2023-07-30T08:57:26;26.90;99.90
11474;DHT22;5793;52.238;13.438;2023-07-30T09:00:00;26.70;99.90
11474;DHT22;5793;52.238;13.438;2023-07-30T09:02:34;26.80;99.90
11474;DHT22;5793;52.238;13.438;2023-07-30T09:05:03;27.60;99.90
11474;DHT22;5793;52.238;13.438;2023-07-30T09:07:33;28.20;99.90
11474;DHT22;5793;52.238;13.438;2023-07-30T09:10:01;29.20;99.90
11474;DHT22;5793;52.238;13.438;2023-07-30T09:12:29;30.60;99.90
11474;DHT22;5793;52.238;13.438;2023-07-30T09:14:57;31.80;97.70
11474;DHT22;5793;52.238;13.438;2023-07-30T09:17:25;31.90;92.70
11474;DHT22;5793;52.238;13.438;2023-07-30T09:19:53;30.90;92.40
11474;DHT22;5793;52.238;13.438;2023-07-30T09:22:24;31.30;91.90
11474;DHT22;5793;52.238;13.438;2023-07-30T09:24:55;33.10;89.00
11474;DHT22;5793;52.238;13.438;2023-07-30T09:27:25;34.80;81.30
11474;DHT22;5793;52.238;13.438;2023-07-30T09:29:55;34.80;73.50
11474;DHT22;5793;52.238;13.438;2023-07-30T09:32:25;32.20;76.60
11474;DHT22;5793;52.238;13.438;2023-07-30T09:34:55;29.70;82.50
11474;DHT22;5793;52.238;13.438;2023-07-30T09:37:23;28.60;86.80
11474;DHT22;5793;52.238;13.438;2023-07-30T09:39:51;27.80;90.40
11474;DHT22;5793;52.238;13.438;2023-07-30T09:42:22;27.60;90.30
11474;DHT22;5793;52.238;13.438;2023-07-30T09:44:58;27.60;90.50
11474;DHT22;5793;52.238;13.438;2023-07-30T09:47:26;27.60;92.10
11474;DHT22;5793;52.238;13.438;2023-07-30T09:49:55;29.80;86.20
11474;DHT22;5793;52.238;13.438;2023-07-30T09:52:23;32.00;80.00
11474;DHT22;5793;52.238;13.438;2023-07-30T09:54:52;32.40;78.30
11474;DHT22;5793;52.238;13.438;2023-07-30T09:57:21;30.20;80.50
11474;DHT22;5793;52.238;13.438;2023-07-30T09:59:51;28.30;84.40
11474;DHT22;5793;52.238;13.438;2023-07-30T10:02:20;28.40;84.00
11474;DHT22;5793;52.238;13.438;2023-07-30T10:04:50;31.10;77.60
11474;DHT22;5793;52.238;13.438;2023-07-30T10:07:22;33.40;68.20
11474;DHT22;5793;52.238;13.438;2023-07-30T10:09:52;34.80;69.20
11474;DHT22;5793;52.238;13.438;2023-07-30T10:12:24;33.70;67.40
11474;DHT22;5793;52.238;13.438;2023-07-30T10:14:54;33.00;68.10
11474;DHT22;5793;52.238;13.438;2023-07-30T10:17:22;31.30;71.10
11474;DHT22;5793;52.238;13.438;2023-07-30T10:19:50;31.60;71.00
11474;DHT22;5793;52.238;13.438;2023-07-30T10:22:22;32.90;66.80
11474;DHT22;5793;52.238;13.438;2023-07-30T10:24:59;34.20;64.40
11474;DHT22;5793;52.238;13.438;2023-07-30T10:27:39;33.50;63.50
11474;DHT22;5793;52.238;13.438;2023-07-30T10:30:11;32.80;67.60
11474;DHT22;5793;52.238;13.438;2023-07-30T10:32:40;33.90;63.40
11474;DHT22;5793;52.238;13.438;2023-07-30T10:35:39;34.70;63.20
11474;DHT22;5793;52.238;13.438;2023-07-30T10:38:16;34.80;60.20
11474;DHT22;5793;52.238;13.438;2023-07-30T10:41:00;36.50;59.60
11474;DHT22;5793;52.238;13.438;2023-07-30T10:43:30;36.80;58.40
11474;DHT22;5793;52.238;13.438;2023-07-30T10:45:58;36.40;58.80
11474;DHT22;5793;52.238;13.438;2023-07-30T10:48:34;36.70;54.50
11474;DHT22;5793;52.238;13.438;2023-07-30T10:51:04;34.30;56.20
11474;DHT22;5793;52.238;13.438;2023-07-30T10:53:33;33.60;60.20
11474;DHT22;5793;52.238;13.438;2023-07-30T10:56:03;34.50;59.00
11474;DHT22;5793;52.238;13.438;2023-07-30T10:58:35;35.40;56.70
11474;DHT22;5793;52.238;13.438;2023-07-30T11:01:04;35.70;58.10
11474;DHT22;5793;52.238;13.438;2023-07-30T11:03:32;36.00;56.50
11474;DHT22;5793;52.238;13.438;2023-07-30T11:06:01;36.70;55.30
11474;DHT22;5793;52.238;13.438;2023-07-30T11:08:33;37.00;54.10
11474;DHT22;5793;52.238;13.438;2023-07-30T11:11:01;36.80;53.00
11474;DHT22;5793;52.238;13.438;2023-07-30T11:13:29;35.50;53.80
11474;DHT22;5793;52.238;13.438;2023-07-30T11:15:59;33.90;56.10
11474;DHT22;5793;52.238;13.438;2023-07-30T11:18:31;32.40;60.80
11474;DHT22;5793;52.238;13.438;2023-07-30T11:21:03;31.90;61.40
11474;DHT22;5793;52.238;13.438;2023-07-30T11:23:31;31.40;62.50
11474;DHT22;5793;52.238;13.438;2023-07-30T11:26:00;31.50;62.40
11474;DHT22;5793;52.238;13.438;2023-07-30T11:28:29;31.10;63.70
11474;DHT22;5793;52.238;13.438;2023-07-30T11:31:03;29.60;65.00
11474;DHT22;5793;52.238;13.438;2023-07-30T11:33:32;29.10;68.90
11474;DHT22;5793;52.238;13.438;2023-07-30T11:36:02;28.80;67.50
11474;DHT22;5793;52.238;13.438;2023-07-30T11:38:32;28.70;69.50
11474;DHT22;5793;52.238;13.438;2023-07-30T11:41:00;28.40;70.00
11474;DHT22;5793;52.238;13.438;2023-07-30T11:43:29;27.90;68.80
11474;DHT22;5793;52.238;13.438;2023-07-30T11:46:08;27.80;70.10
11474;DHT22;5793;52.238;13.438;2023-07-30T11:48:36;27.60;69.00
11474;DHT22;5793;52.238;13.438;2023-07-30T11:51:04;27.70;71.50
11474;DHT22;5793;52.238;13.438;2023-07-30T11:53:49;27.60;71.20
11474;DHT22;5793;52.238;13.438;2023-07-30T11:56:20;27.60;75.70
11474;DHT22;5793;52.238;13.438;2023-07-30T11:58:49;27.20;71.90
11474;DHT22;5793;52.238;13.438;2023-07-30T12:01:18;27.10;72.40
11474;DHT22;5793;52.238;13.438;2023-07-30T12:03:46;26.70;70.30
11474;DHT22;5793;52.238;13.438;2023-07-30T12:06:14;26.60;70.90
11474;DHT22;5793;52.238;13.438;2023-07-30T12:08:42;26.60;72.70
11474;DHT22;5793;52.238;13.438;2023-07-30T12:11:10;26.80;73.90
11474;DHT22;5793;52.238;13.438;2023-07-30T12:13:45;26.70;71.90
11474;DHT22;5793;52.238;13.438;2023-07-30T12:16:14;26.90;71.90
11474;DHT22;5793;52.238;13.438;2023-07-30T12:18:46;26.80;68.60
11474;DHT22;5793;52.238;13.438;2023-07-30T12:21:14;26.60;71.40
11474;DHT22;5793;52.238;13.438;2023-07-30T12:23:42;26.80;73.90
11474;DHT22;5793;52.238;13.438;2023-07-30T12:26:09;26.70;73.80
11474;DHT22;5793;52.238;13.438;2023-07-30T12:28:37;26.80;71.40
11474;DHT22;5793;52.238;13.438;2023-07-30T12:31:05;26.80;72.80
11474;DHT22;5793;52.238;13.438;2023-07-30T12:33:33;26.90;72.20
11474;DHT22;5793;52.238;13.438;2023-07-30T12:36:02;26.70;75.00
11474;DHT22;5793;52.238;13.438;2023-07-30T12:38:30;26.70;75.20
11474;DHT22;5793;52.238;13.438;2023-07-30T12:40:58;26.80;71.50
11474;DHT22;5793;52.238;13.438;2023-07-30T12:43:26;26.70;74.30
11474;DHT22;5793;52.238;13.438;2023-07-30T12:45:54;26.70;76.00
11474;DHT22;5793;52.238;13.438;2023-07-30T12:48:21;26.50;72.60
11474;DHT22;5793;52.238;13.438;2023-07-30T12:50:49;26.40;75.10
11474;DHT22;5793;52.238;13.438;2023-07-30T12:53:18;26.80;74.00
11474;DHT22;5793;52.238;13.438;2023-07-30T12:55:46;27.00;79.50
11474;DHT22;5793;52.238;13.438;2023-07-30T12:58:14;27.20;73.40
11474;DHT22;5793;52.238;13.438;2023-07-30T13:00:42;27.00;73.40
11474;DHT22;5793;52.238;13.438;2023-07-30T13:03:10;26.80;73.30
11474;DHT22;5793;52.238;13.438;2023-07-30T13:05:37;26.70;73.10
11474;DHT22;5793;52.238;13.438;2023-07-30T13:08:05;26.50;72.70
11474;DHT22;5793;52.238;13.438;2023-07-30T13:10:35;26.30;72.90
11474;DHT22;5793;52.238;13.438;2023-07-30T13:13:02;26.40;73.00
11474;DHT22;5793;52.238;13.438;2023-07-30T13:15:30;26.60;73.50
11474;DHT22;5793;52.238;13.438;2023-07-30T13:17:58;26.50;73.70
11474;DHT22;5793;52.238;13.438;2023-07-30T13:20:26;26.40;76.00
11474;DHT22;5793;52.238;13.438;2023-07-30T13:22:54;26.30;72.50
11474;DHT22;5793;52.238;13.438;2023-07-30T13:25:22;26.10;72.40
11474;DHT22;5793;52.238;13.438;2023-07-30T13:27:52;25.70;73.60
11474;DHT22;5793;52.238;13.438;2023-07-30T13:30:20;25.60;71.40
11474;DHT22;5793;52.238;13.438;2023-07-30T13:32:48;25.60;69.20
11474;DHT22;5793;52.238;13.438;2023-07-30T13:35:16;25.80;70.20
11474;DHT22;5793;52.238;13.438;2023-07-30T13:37:44;25.90;72.20
11474;DHT22;5793;52.238;13.438;2023-07-30T13:40:11;26.00;73.90
11474;DHT22;5793;52.238;13.438;2023-07-30T13:42:39;25.90;73.10
11474;DHT22;5793;52.238;13.438;2023-07-30T13:45:09;25.60;71.70
11474;DHT22;5793;52.238;13.438;2023-07-30T13:47:37;25.50;70.00
11474;DHT22;5793;52.238;13.438;2023-07-30T13:50:06;25.30;72.10
11474;DHT22;5793;52.238;13.438;2023-07-30T13:52:34;25.30;73.70
11474;DHT22;5793;52.238;13.438;2023-07-30T13:55:02;25.40;71.80
11474;DHT22;5793;52.238;13.438;2023-07-30T13:57:30;25.30;71.90
11474;DHT22;5793;52.238;13.438;2023-07-30T14:00:02;25.20;72.10
11474;DHT22;5793;52.238;13.438;2023-07-30T14:02:31;25.10;73.00
11474;DHT22;5793;52.238;13.438;2023-07-30T14:04:59;24.90;72.00
11474;DHT22;5793;52.238;13.438;2023-07-30T14:07:27;24.70;73.20
11474;DHT22;5793;52.238;13.438;2023-07-30T14:09:55;24.60;74.80
11474;DHT22;5793;52.238;13.438;2023-07-30T14:12:23;24.40;75.30
11474;DHT22;5793;52.238;13.438;2023-07-30T14:14:51;24.40;76.30
11474;DHT22;5793;52.238;13.438;2023-07-30T14:17:22;24.40;77.70
11474;DHT22;5793;52.238;13.438;2023-07-30T14:19:53;24.20;77.80
11474;DHT22;5793;52.238;13.438;2023-07-30T14:22:22;24.00;77.40
11474;DHT22;5793;52.238;13.438;2023-07-30T14:24:50;24.00;78.60
11474;DHT22;5793;52.238;13.438;2023-07-30T14:27:21;23.80;79.00
11474;DHT22;5793;52.238;13.438;2023-07-30T14:29:50;23.60;80.30
11474;DHT22;5793;52.238;13.438;2023-07-30T14:32:22;23.50;80.30
11474;DHT22;5793;52.238;13.438;2023-07-30T14:34:50;23.30;82.90
11474;DHT22;5793;52.238;13.438;2023-07-30T14:37:39;23.10;83.90
11474;DHT22;5793;52.238;13.438;2023-07-30T14:40:19;23.10;86.30
11474;DHT22;5793;52.238;13.438;2023-07-30T14:42:50;22.90;91.80
11474;DHT22;5793;52.238;13.438;2023-07-30T14:45:18;22.60;96.60
11474;DHT22;5793;52.238;13.438;2023-07-30T14:47:50;22.20;99.90
11474;DHT22;5793;52.238;13.438;2023-07-30T14:50:19;21.90;99.90
11474;DHT22;5793;52.238;13.438;2023-07-30T14:52:54;21.50;99.90
11474;DHT22;5793;52.238;13.438;2023-07-30T14:55:26;21.00;99.90
11474;DHT22;5793;52.238;13.438;2023-07-30T14:57:54;20.60;99.90
11474;DHT22;5793;52.238;13.438;2023-07-30T15:00:22;20.20;99.90
11474;DHT22;5793;52.238;13.438;2023-07-30T15:02:55;19.90;99.90
11474;DHT22;5793;52.238;13.438;2023-07-30T15:05:27;19.80;99.90
11474;DHT22;5793;52.238;13.438;2023-07-30T15:08:06;19.60;99.90
11474;DHT22;5793;52.238;13.438;2023-07-30T15:10:34;19.60;99.90
11474;DHT22;5793;52.238;13.438;2023-07-30T15:13:02;19.60;99.90
11474;DHT22;5793;52.238;13.438;2023-07-30T15:15:33;19.70;99.90
11474;DHT22;5793;52.238;13.438;2023-07-30T15:18:00;19.60;99.90
11474;DHT22;5793;52.238;13.438;2023-07-30T15:20:28;19.40;99.90
11474;DHT22;5793;52.238;13.438;2023-07-30T15:23:06;19.40;99.90
11474;DHT22;5793;52.238;13.438;2023-07-30T15:25:38;19.40;99.90
11474;DHT22;5793;52.238;13.438;2023-07-30T15:28:09;19.50;99.90
11474;DHT22;5793;52.238;13.438;2023-07-30T15:30:40;19.70;99.90
11474;DHT22;5793;52.238;13.438;2023-07-30T15:33:08;20.00;99.90
11474;DHT22;5793;52.238;13.438;2023-07-30T15:35:40;20.30;99.90
11474;DHT22;5793;52.238;13.438;2023-07-30T15:38:27;20.50;99.90
11474;DHT22;5793;52.238;13.438;2023-07-30T15:41:13;20.40;99.90